Terminal Aerodrome Forecast
Issued by NWS Wilmington, OH

Current Version | Previous Version | Text Only | Print | Product List | Glossary Off
Versions: 1 2 3 4 5 6 7 8 9 10 11 12 13 14 15 16 17 18 19 20 21 22 23

025
FTUS41 KILN 260901 AAA
TAFCVG
TAF AMD
KCVG 260901Z 2609/2712 29005KT P6SM SCT080
     FM261400 28010G16KT P6SM SCT050
     FM262300 27006KT P6SM SCT060 BKN120
     FM270500 30004KT P6SM OVC070=

USA.gov is the U.S. government's official web portal to all federal, state and local government web resources and services.